Time;durP1;ratioP1;P1;durP2;ratioP2;P2;SDS_P1;SDS_P2;PMS_P1;PMS_P2;Temp;Humidity;BMP_temperature;BMP_pressure;BME280_temperature;BME280_humidity;BME280_pressure;Samples;Min_cycle;Max_cycle;Signal;HPM_P1;HPM_P2
2023/04/29 00:01:29;;;;;;;15.25;12.02;;;10.40;99.90;;;;;;5012945;28;20038;-75
2023/04/29 00:03:55;;;;;;;13.32;10.93;;;10.30;99.90;;;;;;5011885;28;20033;-75
2023/04/29 00:06:22;;;;;;;13.18;11.02;;;10.20;99.90;;;;;;5012914;28;20129;-75
2023/04/29 00:08:48;;;;;;;14.27;11.50;;;10.20;99.90;;;;;;5012361;28;20042;-75
2023/04/29 00:11:13;;;;;;;15.18;11.45;;;10.20;99.90;;;;;;5012441;28;20042;-75
2023/04/29 00:13:39;;;;;;;19.63;12.63;;;10.20;99.90;;;;;;5012534;28;20033;-76
2023/04/29 00:16:06;;;;;;;17.50;12.95;;;10.10;99.90;;;;;;5012908;28;20407;-75
2023/04/29 00:18:32;;;;;;;15.55;11.75;;;10.10;99.90;;;;;;5012369;28;20041;-75
2023/04/29 00:20:58;;;;;;;13.77;11.52;;;10.00;99.90;;;;;;5010270;28;20766;-75
2023/04/29 00:23:24;;;;;;;13.55;10.80;;;10.00;99.90;;;;;;5012125;28;20116;-74
2023/04/29 00:25:52;;;;;;;13.43;10.50;;;10.00;99.90;;;;;;5012268;28;20367;-75
2023/04/29 00:28:18;;;;;;;13.32;10.98;;;10.00;99.90;;;;;;5017607;28;20128;-75
2023/04/29 00:30:43;;;;;;;13.98;11.20;;;10.00;99.90;;;;;;5034221;28;20494;-75
2023/04/29 00:33:09;;;;;;;14.60;10.45;;;10.10;99.90;;;;;;5052485;28;20032;-75
2023/04/29 00:35:35;;;;;;;12.73;10.07;;;10.00;99.90;;;;;;5033402;28;20040;-75
2023/04/29 00:38:00;;;;;;;13.40;10.25;;;10.10;99.90;;;;;;5052015;28;20029;-75
2023/04/29 00:40:27;;;;;;;15.15;11.13;;;10.00;99.90;;;;;;5052528;28;20025;-75
2023/04/29 00:42:53;;;;;;;14.10;11.15;;;10.10;99.90;;;;;;5051692;28;20029;-75
2023/04/29 00:45:19;;;;;;;13.07;10.85;;;10.10;99.90;;;;;;5052707;28;20032;-75
2023/04/29 00:47:45;;;;;;;13.77;11.13;;;10.00;99.90;;;;;;5051865;28;20029;-75
2023/04/29 00:50:10;;;;;;;14.60;11.20;;;10.00;99.90;;;;;;5052161;28;20051;-75
2023/04/29 00:52:38;;;;;;;14.55;11.32;;;10.00;99.90;;;;;;5052227;28;20037;-75
2023/04/29 00:55:08;;;;;;;12.98;10.80;;;10.00;99.90;;;;;;5051637;28;20024;-75
2023/04/29 00:57:33;;;;;;;15.43;11.05;;;10.00;99.90;;;;;;5052388;28;20028;-75
2023/04/29 00:59:59;;;;;;;14.15;11.68;;;9.90;99.90;;;;;;5051991;28;20071;-75
2023/04/29 01:02:25;;;;;;;13.85;10.93;;;9.90;99.90;;;;;;5052285;28;20025;-76
2023/04/29 01:04:52;;;;;;;13.30;10.45;;;9.80;99.90;;;;;;5051561;28;20051;-76
2023/04/29 01:07:17;;;;;;;14.82;10.93;;;9.80;99.90;;;;;;5052026;28;20478;-76
2023/04/29 01:10:07;;;;;;;15.07;10.43;;;9.70;99.90;;;;;;5051799;28;20040;-77
2023/04/29 01:12:40;;;;;;;10.93;9.20;;;9.70;99.90;;;;;;5052226;28;20029;-75
2023/04/29 01:15:09;;;;;;;14.88;10.60;;;9.70;99.90;;;;;;5051445;28;20108;-76
2023/04/29 01:17:54;;;;;;;11.75;10.02;;;9.60;99.90;;;;;;5052353;28;20127;-75
2023/04/29 01:20:22;;;;;;;13.48;9.35;;;9.60;99.90;;;;;;5052331;28;20033;-75
2023/04/29 01:22:48;;;;;;;13.70;9.88;;;9.60;99.90;;;;;;5051713;28;20112;-76
2023/04/29 01:25:13;;;;;;;11.75;9.77;;;9.60;99.90;;;;;;5053316;28;20129;-76
2023/04/29 01:28:04;;;;;;;14.95;11.50;;;9.50;99.90;;;;;;5055923;28;20033;-77
2023/04/29 01:30:51;;;;;;;15.70;10.20;;;9.50;99.90;;;;;;5054897;28;20037;-75
2023/04/29 01:33:41;;;;;;;13.10;9.55;;;9.40;99.90;;;;;;5038330;28;20032;-76
2023/04/29 01:36:12;;;;;;;11.88;9.30;;;9.40;99.90;;;;;;5054019;28;20115;-77
2023/04/29 01:38:47;;;;;;;13.27;10.40;;;9.30;99.90;;;;;;5055068;28;20071;-75
2023/04/29 01:41:35;;;;;;;17.25;10.57;;;9.30;99.90;;;;;;5055424;28;20462;-75
2023/04/29 01:44:03;;;;;;;13.57;11.07;;;9.30;99.90;;;;;;5054773;28;20051;-76
2023/04/29 01:46:30;;;;;;;12.30;9.98;;;9.20;99.90;;;;;;5055319;28;20024;-76
2023/04/29 01:48:55;;;;;;;12.93;9.98;;;9.10;99.90;;;;;;5057145;28;20017;-74
2023/04/29 01:51:21;;;;;;;12.70;9.50;;;9.10;99.90;;;;;;5056931;28;20037;-76
2023/04/29 01:53:47;;;;;;;12.10;9.60;;;9.10;99.90;;;;;;5038320;28;20116;-77
2023/04/29 01:56:13;;;;;;;13.57;9.38;;;9.10;99.90;;;;;;5056010;28;20129;-76
2023/04/29 01:58:38;;;;;;;13.05;9.40;;;9.10;99.90;;;;;;5055883;28;20028;-76
2023/04/29 02:01:05;;;;;;;12.63;9.00;;;9.10;99.90;;;;;;5055492;28;20518;-76
2023/04/29 02:03:31;;;;;;;13.90;10.15;;;9.00;99.90;;;;;;5056252;28;20131;-75
2023/04/29 02:05:57;;;;;;;10.77;8.15;;;9.00;99.90;;;;;;5055220;28;20522;-76
2023/04/29 02:08:23;;;;;;;14.02;8.43;;;9.00;99.90;;;;;;5056205;28;20064;-75
2023/04/29 02:10:57;;;;;;;11.45;8.73;;;9.00;99.90;;;;;;5055523;28;20065;-76
2023/04/29 02:13:22;;;;;;;14.15;8.90;;;9.00;99.90;;;;;;5056348;28;20108;-76
2023/04/29 02:15:48;;;;;;;9.77;7.85;;;9.00;99.90;;;;;;5037716;28;20112;-77
2023/04/29 02:18:14;;;;;;;12.07;8.50;;;9.00;99.90;;;;;;5056212;28;20025;-75
2023/04/29 02:20:41;;;;;;;9.07;7.68;;;9.00;99.90;;;;;;5056132;28;20095;-75
2023/04/29 02:23:06;;;;;;;10.60;7.80;;;9.10;99.90;;;;;;5055488;28;20039;-76
2023/04/29 02:25:32;;;;;;;10.20;7.95;;;9.10;99.90;;;;;;5055851;28;20033;-76
2023/04/29 02:27:58;;;;;;;11.20;8.13;;;9.10;99.90;;;;;;5055317;28;20477;-75
2023/04/29 02:30:23;;;;;;;9.77;7.57;;;9.00;99.90;;;;;;5055667;28;20049;-75
2023/04/29 02:32:50;;;;;;;10.43;8.07;;;9.00;99.90;;;;;;5055056;28;20025;-77
2023/04/29 02:35:16;;;;;;;10.40;8.10;;;8.90;99.90;;;;;;5055132;28;20029;-75
2023/04/29 02:37:41;;;;;;;11.02;7.78;;;8.80;99.90;;;;;;5055249;28;20036;-75
2023/04/29 02:40:08;;;;;;;9.75;7.65;;;8.70;99.90;;;;;;5036552;28;20028;-75
2023/04/29 02:42:33;;;;;;;9.98;7.85;;;8.70;99.90;;;;;;5055701;28;20100;-74
2023/04/29 02:44:59;;;;;;;10.18;7.05;;;8.70;99.90;;;;;;5054415;28;20056;-75
2023/04/29 02:47:25;;;;;;;10.63;7.63;;;8.70;99.90;;;;;;5055591;28;20025;-75
2023/04/29 02:49:51;;;;;;;9.93;7.18;;;8.80;99.90;;;;;;5054489;28;20386;-76
2023/04/29 02:52:17;;;;;;;8.60;7.53;;;8.80;99.90;;;;;;5055378;28;20036;-75
2023/04/29 02:54:43;;;;;;;8.98;6.78;;;8.80;99.90;;;;;;5055172;28;20083;-75
2023/04/29 02:57:09;;;;;;;8.13;6.70;;;8.80;99.90;;;;;;5054296;28;20686;-76
2023/04/29 02:59:35;;;;;;;8.55;6.82;;;8.90;99.90;;;;;;5054495;28;20039;-75
2023/04/29 03:02:01;;;;;;;10.05;7.13;;;9.00;99.90;;;;;;5036288;28;20450;-75
2023/04/29 03:04:27;;;;;;;9.00;7.13;;;9.00;99.90;;;;;;5054763;28;20482;-75
2023/04/29 03:06:56;;;;;;;9.90;7.25;;;9.00;99.90;;;;;;5036225;28;20060;-76
2023/04/29 03:09:23;;;;;;;9.07;6.95;;;9.00;99.90;;;;;;5054672;28;20021;-75
2023/04/29 03:11:49;;;;;;;7.25;6.40;;;9.00;99.90;;;;;;5054449;28;20033;-75
2023/04/29 03:14:14;;;;;;;6.95;5.95;;;8.90;99.90;;;;;;5053843;28;20036;-76
2023/04/29 03:16:41;;;;;;;6.90;5.95;;;8.90;99.90;;;;;;5054437;28;20034;-76
2023/04/29 03:19:07;;;;;;;6.68;5.93;;;8.90;99.90;;;;;;5053959;28;20040;-76
2023/04/29 03:21:32;;;;;;;8.95;7.03;;;8.90;99.90;;;;;;5054784;28;20037;-75
2023/04/29 03:23:58;;;;;;;7.68;6.10;;;8.90;99.90;;;;;;5053857;28;20025;-76
2023/04/29 03:26:24;;;;;;;7.03;6.05;;;8.90;99.90;;;;;;5036939;28;20070;-76
2023/04/29 03:28:50;;;;;;;6.40;5.50;;;8.90;99.90;;;;;;5053969;28;20385;-76
2023/04/29 03:31:16;;;;;;;7.28;5.57;;;9.00;99.90;;;;;;5053844;28;20182;-75
2023/04/29 03:33:42;;;;;;;7.07;5.68;;;9.00;99.90;;;;;;5054162;28;20474;-76
2023/04/29 03:36:08;;;;;;;9.32;6.05;;;9.10;99.90;;;;;;5053156;28;20032;-76
2023/04/29 03:38:34;;;;;;;8.55;6.15;;;9.20;99.90;;;;;;5053681;28;20370;-75
2023/04/29 03:41:00;;;;;;;7.25;5.78;;;9.20;99.90;;;;;;5052994;28;20154;-76
2023/04/29 03:43:26;;;;;;;6.40;5.28;;;9.20;99.90;;;;;;5053632;28;20099;-76
2023/04/29 03:45:52;;;;;;;6.03;5.40;;;9.30;99.90;;;;;;5053723;28;20131;-76
2023/04/29 03:48:18;;;;;;;7.22;5.53;;;9.40;99.90;;;;;;5035242;28;20078;-76
2023/04/29 03:50:45;;;;;;;6.30;5.68;;;9.50;99.90;;;;;;5053373;28;20033;-75
2023/04/29 03:53:11;;;;;;;8.70;5.63;;;9.50;99.90;;;;;;5052653;28;20056;-76
2023/04/29 03:55:37;;;;;;;8.43;5.95;;;9.50;99.90;;;;;;5053558;28;20052;-75
2023/04/29 03:58:04;;;;;;;8.52;5.72;;;9.50;99.90;;;;;;5052566;28;20029;-76
2023/04/29 04:00:30;;;;;;;7.32;6.60;;;9.50;99.90;;;;;;5052860;28;20378;-76
2023/04/29 04:02:59;;;;;;;8.88;6.18;;;9.50;99.90;;;;;;5052498;28;20029;-76
2023/04/29 04:05:25;;;;;;;8.80;6.15;;;9.60;99.90;;;;;;5053103;28;20466;-76
2023/04/29 04:07:54;;;;;;;7.10;6.05;;;9.60;99.90;;;;;;5053164;28;20104;-75
2023/04/29 04:10:19;;;;;;;8.43;5.72;;;9.60;99.90;;;;;;5034768;28;20037;-76
2023/04/29 04:12:46;;;;;;;8.68;6.40;;;9.60;99.90;;;;;;5052980;28;20768;-75
2023/04/29 04:15:12;;;;;;;7.32;5.65;;;9.60;99.90;;;;;;5051944;28;20490;-75
2023/04/29 04:17:38;;;;;;;6.72;5.70;;;9.60;99.90;;;;;;5052922;28;20036;-75
2023/04/29 04:20:04;;;;;;;5.85;4.95;;;9.60;99.90;;;;;;5033877;28;20412;-76
2023/04/29 04:22:30;;;;;;;5.60;4.57;;;9.60;99.90;;;;;;5034877;28;20429;-76
2023/04/29 04:24:56;;;;;;;5.88;5.20;;;9.60;99.90;;;;;;5052600;28;20057;-76
2023/04/29 04:27:22;;;;;;;6.55;4.80;;;9.60;99.90;;;;;;5034645;28;20115;-75
2023/04/29 04:29:47;;;;;;;6.30;4.70;;;9.60;99.90;;;;;;5052835;28;20079;-76
2023/04/29 04:32:13;;;;;;;7.30;4.88;;;9.60;99.90;;;;;;5052063;28;20057;-76
2023/04/29 04:34:39;;;;;;;5.93;4.93;;;9.70;99.90;;;;;;5052719;28;20025;-76
2023/04/29 04:37:05;;;;;;;6.03;5.40;;;9.80;99.90;;;;;;5052072;28;20454;-75
2023/04/29 04:39:31;;;;;;;6.55;5.30;;;9.80;99.90;;;;;;5052266;28;20438;-75
2023/04/29 04:41:57;;;;;;;7.15;5.72;;;9.80;99.90;;;;;;5051988;28;20037;-77
2023/04/29 04:44:23;;;;;;;7.15;5.43;;;9.80;99.90;;;;;;5052004;28;20029;-75
2023/04/29 04:46:51;;;;;;;5.95;4.70;;;9.80;99.90;;;;;;5052499;28;20455;-75
2023/04/29 04:49:16;;;;;;;5.90;5.22;;;9.80;99.90;;;;;;5052158;28;20641;-75
2023/04/29 04:51:45;;;;;;;5.82;5.22;;;9.80;99.90;;;;;;5052415;28;20122;-75
2023/04/29 04:54:11;;;;;;;5.60;4.85;;;9.80;99.90;;;;;;5051789;28;20036;-76
2023/04/29 04:56:36;;;;;;;5.45;4.95;;;9.80;99.90;;;;;;5052224;28;20021;-75
2023/04/29 04:59:03;;;;;;;6.68;5.45;;;9.80;99.90;;;;;;5051819;28;20029;-75
2023/04/29 05:01:29;;;;;;;7.13;5.55;;;9.90;99.90;;;;;;5052475;28;20029;-75
2023/04/29 05:03:54;;;;;;;5.63;4.97;;;9.90;99.90;;;;;;5034578;28;20024;-76
2023/04/29 05:06:20;;;;;;;5.97;5.38;;;9.90;99.90;;;;;;5051569;28;20048;-75
2023/04/29 05:08:46;;;;;;;6.35;4.78;;;9.90;99.90;;;;;;5034514;28;20047;-75
2023/04/29 05:11:19;;;;;;;8.68;5.35;;;9.90;99.90;;;;;;5051492;28;20367;-76
2023/04/29 05:13:45;;;;;;;5.55;4.93;;;9.90;99.90;;;;;;5052034;28;20108;-75
2023/04/29 05:16:10;;;;;;;5.65;5.05;;;9.90;99.90;;;;;;5033974;28;20111;-75
2023/04/29 05:18:36;;;;;;;9.60;6.88;;;10.00;99.90;;;;;;5051861;28;20076;-75
2023/04/29 05:21:02;;;;;;;8.43;6.10;;;10.00;99.90;;;;;;5052208;28;20113;-76
2023/04/29 05:23:28;;;;;;;8.27;6.88;;;10.10;99.90;;;;;;5055773;28;20021;-75
2023/04/29 05:25:54;;;;;;;7.15;5.53;;;10.20;99.90;;;;;;5056004;28;20078;-75
2023/04/29 05:28:20;;;;;;;9.93;6.50;;;10.20;99.90;;;;;;5055274;28;20087;-75
2023/04/29 05:30:49;;;;;;;6.55;5.60;;;10.30;99.90;;;;;;5055716;28;20447;-75
2023/04/29 05:33:15;;;;;;;8.00;5.88;;;10.30;99.90;;;;;;5055510;28;20028;-76
2023/04/29 05:35:40;;;;;;;8.57;5.50;;;10.40;99.90;;;;;;5038113;28;20025;-76
2023/04/29 05:38:06;;;;;;;6.93;5.40;;;10.40;99.90;;;;;;5037544;28;20467;-76
2023/04/29 05:40:32;;;;;;;8.23;6.68;;;10.40;99.90;;;;;;5055994;28;20071;-76
2023/04/29 05:42:58;;;;;;;9.27;7.28;;;10.50;99.90;;;;;;5055333;28;20442;-76
2023/04/29 05:45:24;;;;;;;7.65;6.55;;;10.50;99.90;;;;;;5055226;28;20053;-77
2023/04/29 05:47:50;;;;;;;7.80;5.60;;;10.50;99.90;;;;;;5055719;28;20055;-77
2023/04/29 05:50:16;;;;;;;8.73;6.57;;;10.60;99.90;;;;;;5054981;28;20433;-76
2023/04/29 05:52:42;;;;;;;7.65;6.05;;;10.60;99.90;;;;;;5037800;28;20458;-76
2023/04/29 05:55:08;;;;;;;5.88;5.28;;;10.70;99.90;;;;;;5055231;28;20032;-76
2023/04/29 05:57:33;;;;;;;9.68;6.90;;;10.70;99.90;;;;;;5055658;28;20100;-76
2023/04/29 05:59:59;;;;;;;9.55;6.90;;;10.70;99.90;;;;;;5055657;28;20105;-75
2023/04/29 06:02:26;;;;;;;10.32;8.10;;;10.70;99.90;;;;;;5054908;28;20417;-76
2023/04/29 06:04:51;;;;;;;11.27;8.02;;;10.70;99.90;;;;;;5055125;28;20507;-76
2023/04/29 06:07:17;;;;;;;9.55;7.13;;;10.70;99.90;;;;;;5054546;28;20053;-76
2023/04/29 06:09:43;;;;;;;9.07;7.47;;;10.70;99.90;;;;;;5037355;28;20119;-76
2023/04/29 06:12:10;;;;;;;10.90;7.70;;;10.80;99.90;;;;;;5036735;28;20184;-76
2023/04/29 06:14:35;;;;;;;9.57;7.47;;;10.90;99.90;;;;;;5055303;28;20032;-76
2023/04/29 06:17:02;;;;;;;12.75;8.93;;;10.90;99.90;;;;;;5054468;28;20029;-76
2023/04/29 06:19:28;;;;;;;9.50;7.72;;;11.00;99.90;;;;;;5054553;28;20021;-75
2023/04/29 06:21:54;;;;;;;10.48;7.28;;;11.00;99.90;;;;;;5054182;28;20040;-75
2023/04/29 06:24:20;;;;;;;10.43;7.97;;;11.00;99.90;;;;;;5054250;28;20039;-76
2023/04/29 06:26:46;;;;;;;11.18;8.05;;;11.10;99.90;;;;;;5053986;28;20033;-76
2023/04/29 06:29:11;;;;;;;13.98;8.52;;;11.10;99.90;;;;;;5053662;28;20045;-77
2023/04/29 06:31:37;;;;;;;12.55;8.63;;;11.20;99.90;;;;;;5036934;28;20037;-76
2023/04/29 06:34:03;;;;;;;8.32;7.45;;;11.30;99.90;;;;;;5053534;28;20437;-76
2023/04/29 06:36:28;;;;;;;12.10;8.43;;;11.30;99.90;;;;;;5054433;28;20029;-76
2023/04/29 06:38:54;;;;;;;11.75;8.57;;;11.30;99.90;;;;;;5054710;28;20025;-76
2023/04/29 06:41:20;;;;;;;11.82;8.43;;;11.40;99.90;;;;;;5053600;28;20033;-76
2023/04/29 06:43:46;;;;;;;11.57;8.80;;;11.50;99.90;;;;;;5054594;28;20025;-76
2023/04/29 06:46:12;;;;;;;11.52;9.00;;;11.60;99.90;;;;;;5054121;28;20106;-76
2023/04/29 06:48:37;;;;;;;11.20;9.07;;;11.60;99.90;;;;;;5054464;28;20355;-76
2023/04/29 06:51:03;;;;;;;11.93;9.07;;;11.70;99.90;;;;;;5054173;28;20064;-76
2023/04/29 06:53:29;;;;;;;12.07;8.38;;;11.80;99.90;;;;;;5053902;28;20031;-76
2023/04/29 06:55:55;;;;;;;12.88;9.73;;;11.90;99.90;;;;;;5036547;28;20082;-76
2023/04/29 06:58:20;;;;;;;10.65;8.88;;;11.90;99.90;;;;;;5053778;28;20031;-77
2023/04/29 07:00:48;;;;;;;13.13;8.85;;;12.00;99.90;;;;;;5036479;28;20113;-77
2023/04/29 07:03:15;;;;;;;14.32;9.63;;;12.10;99.90;;;;;;5035794;28;20091;-77
2023/04/29 07:05:41;;;;;;;12.57;8.35;;;12.20;99.90;;;;;;5036256;28;20481;-76
2023/04/29 07:08:12;;;;;;;11.50;8.05;;;12.30;99.90;;;;;;5053382;28;20021;-77
2023/04/29 07:10:38;;;;;;;11.95;8.38;;;12.40;99.90;;;;;;5053551;28;20414;-76
2023/04/29 07:13:04;;;;;;;12.52;7.60;;;12.40;99.90;;;;;;5054007;28;20071;-76
2023/04/29 07:15:33;;;;;;;11.27;8.30;;;12.50;99.90;;;;;;5053012;28;20032;-76
2023/04/29 07:17:59;;;;;;;10.32;7.85;;;12.50;99.90;;;;;;5053753;28;20029;-76
2023/04/29 07:20:26;;;;;;;8.63;6.85;;;12.60;99.90;;;;;;5053177;28;20033;-76
2023/04/29 07:22:52;;;;;;;8.63;7.30;;;12.70;99.90;;;;;;5053746;28;20032;-75
2023/04/29 07:25:18;;;;;;;11.25;7.68;;;12.70;99.90;;;;;;5053454;28;20037;-76
2023/04/29 07:27:43;;;;;;;12.48;8.32;;;12.80;99.90;;;;;;5053518;28;20098;-76
2023/04/29 07:30:09;;;;;;;12.15;8.07;;;12.80;99.90;;;;;;5053232;28;20060;-77
2023/04/29 07:32:36;;;;;;;13.23;8.90;;;12.80;99.90;;;;;;5053642;28;20490;-76
2023/04/29 07:35:02;;;;;;;11.52;8.25;;;12.80;99.90;;;;;;5053172;28;20029;-76
2023/04/29 07:37:28;;;;;;;10.70;8.38;;;12.80;99.90;;;;;;5052936;28;20029;-77
2023/04/29 07:39:53;;;;;;;13.88;8.82;;;12.90;99.90;;;;;;5053758;28;20424;-76
2023/04/29 07:42:19;;;;;;;9.25;7.68;;;12.90;99.90;;;;;;5034813;28;20025;-76
2023/04/29 07:44:45;;;;;;;13.35;9.65;;;13.00;99.90;;;;;;5053117;28;20037;-75
2023/04/29 07:47:11;;;;;;;10.98;8.52;;;13.00;99.90;;;;;;5034901;28;20374;-77
2023/04/29 07:49:37;;;;;;;12.07;8.85;;;13.10;99.90;;;;;;5053180;28;20134;-76
2023/04/29 07:52:08;;;;;;;15.10;9.50;;;13.20;99.90;;;;;;5035289;28;20453;-75
2023/04/29 07:54:36;;;;;;;12.32;9.02;;;13.20;99.90;;;;;;5052671;28;20058;-76
2023/04/29 07:57:03;;;;;;;12.68;9.13;;;13.30;99.90;;;;;;5053137;28;20459;-75
2023/04/29 07:59:30;;;;;;;14.27;9.25;;;13.40;99.90;;;;;;5052167;28;20033;-75
2023/04/29 08:01:56;;;;;;;13.63;8.88;;;13.40;99.90;;;;;;5053066;28;20033;-76
2023/04/29 08:04:22;;;;;;;10.35;8.27;;;13.50;99.90;;;;;;5052497;28;20021;-76
2023/04/29 08:06:48;;;;;;;10.63;8.23;;;13.60;99.90;;;;;;5052991;28;20090;-75
2023/04/29 08:09:14;;;;;;;13.80;9.00;;;13.70;99.90;;;;;;5052445;28;20029;-76
2023/04/29 08:11:40;;;;;;;9.68;8.15;;;13.70;99.90;;;;;;5052705;28;20363;-75
2023/04/29 08:14:06;;;;;;;9.63;7.15;;;13.80;99.90;;;;;;5034914;28;20040;-75
2023/04/29 08:16:32;;;;;;;10.10;7.00;;;13.80;99.90;;;;;;5052211;28;20033;-75
2023/04/29 08:18:57;;;;;;;8.75;6.20;;;13.90;99.90;;;;;;5052615;28;20094;-75
2023/04/29 08:21:23;;;;;;;10.13;8.35;;;14.00;99.90;;;;;;5052094;28;20430;-75
2023/04/29 08:23:49;;;;;;;11.18;8.50;;;14.00;99.90;;;;;;5052955;28;20409;-76
2023/04/29 08:26:15;;;;;;;9.85;6.65;;;14.00;99.90;;;;;;5052450;28;20112;-76
2023/04/29 08:28:40;;;;;;;9.38;7.53;;;14.00;99.90;;;;;;5052410;28;20509;-76
2023/04/29 08:31:06;;;;;;;9.23;7.35;;;14.00;99.90;;;;;;5052523;28;20489;-75
2023/04/29 08:33:35;;;;;;;10.90;8.32;;;14.10;99.90;;;;;;5052003;28;20063;-76
2023/04/29 08:36:02;;;;;;;11.27;8.30;;;14.10;99.90;;;;;;5052311;28;20036;-76
2023/04/29 08:38:29;;;;;;;10.32;7.65;;;14.10;99.90;;;;;;5051890;28;20028;-76
2023/04/29 08:40:55;;;;;;;12.20;7.95;;;14.10;99.90;;;;;;5052409;28;20040;-76
2023/04/29 08:43:21;;;;;;;11.30;7.82;;;14.20;99.90;;;;;;5051683;28;20107;-76
2023/04/29 08:45:50;;;;;;;12.10;9.25;;;14.20;99.90;;;;;;5052386;28;20036;-76
2023/04/29 08:48:16;;;;;;;8.98;8.07;;;14.20;99.90;;;;;;5051535;28;20385;-77
2023/04/29 08:50:42;;;;;;;12.90;8.15;;;14.20;99.90;;;;;;5051922;28;20111;-76
2023/04/29 08:53:12;;;;;;;10.52;8.55;;;14.20;99.90;;;;;;5051883;28;20033;-76
2023/04/29 08:55:45;;;;;;;11.45;9.18;;;14.30;99.90;;;;;;5051700;28;20027;-77
2023/04/29 08:58:12;;;;;;;9.75;8.02;;;14.30;99.90;;;;;;5034715;28;20371;-77
2023/04/29 09:00:40;;;;;;;9.82;8.77;;;14.40;99.90;;;;;;5034195;28;20041;-75
2023/04/29 09:03:30;;;;;;;11.98;8.80;;;14.60;99.90;;;;;;5052208;28;20089;-76
2023/04/29 09:05:59;;;;;;;13.90;9.25;;;14.70;99.90;;;;;;5034278;28;20463;-76
2023/04/29 09:08:25;;;;;;;10.45;8.60;;;14.80;99.90;;;;;;5051770;28;20378;-76
2023/04/29 09:10:52;;;;;;;8.60;7.72;;;15.00;99.90;;;;;;5054509;28;20025;-74
2023/04/29 09:13:31;;;;;;;9.50;8.57;;;15.10;99.90;;;;;;5058297;28;20037;-78
2023/04/29 09:15:57;;;;;;;9.45;7.70;;;15.30;99.90;;;;;;5060325;28;20466;-76
2023/04/29 09:18:42;;;;;;;12.48;9.15;;;15.30;99.90;;;;;;5059201;28;20032;-76
2023/04/29 09:21:28;;;;;;;9.45;7.72;;;15.40;99.90;;;;;;5060014;28;20028;-75
2023/04/29 09:23:56;;;;;;;10.60;8.50;;;15.50;99.90;;;;;;5059720;28;20077;-75
2023/04/29 09:26:23;;;;;;;8.73;7.93;;;15.40;99.90;;;;;;5058430;28;20025;-75
2023/04/29 09:29:12;;;;;;;12.25;9.85;;;15.60;99.90;;;;;;5056089;28;20053;-76
2023/04/29 09:31:38;;;;;;;11.82;9.35;;;15.50;99.90;;;;;;5053682;28;20475;-76
2023/04/29 09:34:05;;;;;;;14.38;9.77;;;15.50;99.90;;;;;;5053581;28;20378;-75
2023/04/29 09:36:41;;;;;;;11.50;9.23;;;15.50;99.90;;;;;;5051503;28;20029;-76
2023/04/29 09:39:12;;;;;;;10.60;9.45;;;15.60;99.90;;;;;;5051835;28;20024;-76
2023/04/29 09:41:53;;;;;;;14.43;10.43;;;15.80;99.90;;;;;;5051098;28;20525;-77
2023/04/29 09:44:23;;;;;;;12.32;9.20;;;15.90;99.90;;;;;;5051389;28;20481;-77
2023/04/29 09:47:08;;;;;;;8.73;6.90;;;16.10;99.90;;;;;;5052102;28;20070;-76
2023/04/29 09:49:40;;;;;;;9.75;7.22;;;16.20;99.90;;;;;;5051147;28;20373;-76
2023/04/29 09:52:08;;;;;;;8.80;7.90;;;16.20;99.90;;;;;;5033741;28;20025;-77
2023/04/29 09:54:36;;;;;;;8.93;8.00;;;16.30;99.90;;;;;;5051074;28;20037;-76
2023/04/29 09:57:05;;;;;;;11.27;9.07;;;16.30;99.90;;;;;;5051335;28;20025;-76
2023/04/29 09:59:34;;;;;;;8.95;7.70;;;16.40;99.90;;;;;;5051100;28;20021;-77
2023/04/29 10:02:03;;;;;;;9.60;8.02;;;16.30;99.90;;;;;;5051743;28;20470;-76
2023/04/29 10:04:31;;;;;;;8.07;6.93;;;16.30;99.90;;;;;;5050821;28;20440;-76
2023/04/29 10:06:59;;;;;;;10.30;7.10;;;16.50;99.90;;;;;;5052014;28;20029;-76
2023/04/29 10:09:25;;;;;;;7.40;6.10;;;16.50;99.90;;;;;;5054430;28;20378;-77
2023/04/29 10:11:52;;;;;;;7.80;4.57;;;16.70;99.90;;;;;;5054986;28;20028;-77
2023/04/29 10:14:23;;;;;;;6.20;4.78;;;16.90;99.90;;;;;;5054687;28;20029;-77
2023/04/29 10:17:01;;;;;;;5.30;4.28;;;17.20;99.90;;;;;;5054840;28;20123;-77
2023/04/29 10:19:46;;;;;;;4.57;3.97;;;17.40;99.90;;;;;;5021324;28;20492;-77
2023/04/29 10:22:18;;;;;;;3.90;3.47;;;17.40;99.90;;;;;;5054812;28;20057;-76
2023/04/29 10:24:45;;;;;;;5.83;4.40;;;17.50;99.90;;;;;;5054615;28;20035;-77
2023/04/29 10:27:13;;;;;;;5.85;4.13;;;17.30;99.90;;;;;;5055240;28;20406;-77
2023/04/29 10:29:40;;;;;;;5.95;4.03;;;17.30;99.90;;;;;;5053734;28;20111;-77
2023/04/29 10:32:09;;;;;;;4.78;4.15;;;17.30;99.90;;;;;;5036934;28;20037;-77
2023/04/29 10:34:38;;;;;;;5.07;3.55;;;17.20;99.90;;;;;;5054045;28;20060;-77
2023/04/29 10:37:07;;;;;;;6.03;3.72;;;17.30;99.90;;;;;;5054606;28;20355;-77
2023/04/29 10:39:49;;;;;;;4.60;3.97;;;17.30;99.90;;;;;;5054109;28;20021;-77
2023/04/29 10:42:33;;;;;;;7.32;5.30;;;17.20;99.90;;;;;;5054658;28;20108;-77
2023/04/29 10:45:17;;;;;;;7.57;4.70;;;17.30;99.90;;;;;;5054288;28;20056;-76
2023/04/29 10:48:22;;;;;;;6.00;4.78;;;17.30;99.90;;;;;;5053906;28;20544;-76
2023/04/29 10:50:48;;;;;;;6.40;4.50;;;17.30;99.90;;;;;;4953814;29;20031;-77
2023/04/29 10:53:15;;;;;;;8.18;3.92;;;17.50;99.90;;;;;;5036249;28;20048;-77
2023/04/29 10:55:42;;;;;;;3.45;3.15;;;17.70;99.90;;;;;;5053801;28;20079;-77
2023/04/29 10:58:35;;;;;;;2.53;2.33;;;17.60;99.90;;;;;;5054316;28;20031;-77
2023/04/29 11:01:02;;;;;;;4.50;3.30;;;17.50;99.90;;;;;;5054028;28;20120;-77
2023/04/29 11:03:59;;;;;;;4.10;3.70;;;17.50;99.90;;;;;;5053557;28;20025;-77
2023/04/29 11:06:47;;;;;;;5.85;3.60;;;17.40;99.90;;;;;;5053455;28;20025;-77
2023/04/29 11:09:16;;;;;;;5.95;4.75;;;17.40;99.90;;;;;;5053877;28;20159;-77
2023/04/29 11:12:04;;;;;;;7.47;6.10;;;16.70;99.90;;;;;;5053242;28;20059;-77
2023/04/29 11:14:42;;;;;;;7.10;5.40;;;16.40;99.90;;;;;;5053424;28;20040;-78
2023/04/29 11:17:14;;;;;;;7.78;6.85;;;16.30;99.90;;;;;;5055215;28;20025;-77
2023/04/29 11:19:43;;;;;;;6.50;5.90;;;16.20;99.90;;;;;;5057119;28;20386;-77
2023/04/29 11:22:17;;;;;;;7.10;5.90;;;16.20;99.90;;;;;;5054451;28;20060;-77
2023/04/29 11:25:05;;;;;;;9.43;6.43;;;16.20;99.90;;;;;;5035957;28;20175;-77
2023/04/29 11:27:37;;;;;;;10.60;7.47;;;16.10;99.90;;;;;;5035383;28;20454;-78
2023/04/29 11:30:05;;;;;;;10.70;7.53;;;15.80;99.90;;;;;;5054178;28;20481;-77
2023/04/29 11:32:41;;;;;;;8.98;7.35;;;15.70;99.90;;;;;;5053593;28;20448;-77
2023/04/29 11:35:08;;;;;;;9.07;7.18;;;15.70;99.90;;;;;;5054001;28;20389;-77
2023/04/29 11:37:34;;;;;;;8.73;7.53;;;15.80;99.90;;;;;;5053548;28;20104;-78
2023/04/29 11:40:00;;;;;;;8.77;6.85;;;15.70;99.90;;;;;;5054155;28;20147;-77
2023/04/29 11:42:27;;;;;;;7.60;6.85;;;15.90;99.90;;;;;;5052729;28;20539;-78
2023/04/29 11:44:59;;;;;;;13.52;7.53;;;15.90;99.90;;;;;;5053692;28;20039;-77
2023/04/29 11:47:27;;;;;;;8.38;7.25;;;16.00;99.90;;;;;;5052955;28;20492;-78
2023/04/29 11:49:53;;;;;;;6.95;6.25;;;16.30;99.90;;;;;;5053281;28;20095;-77
2023/04/29 11:52:19;;;;;;;7.35;6.47;;;16.30;99.90;;;;;;5053185;28;20086;-77
2023/04/29 11:54:46;;;;;;;6.90;5.55;;;16.40;99.90;;;;;;5052379;28;20029;-77
2023/04/29 11:57:12;;;;;;;5.97;5.05;;;16.40;99.90;;;;;;5052793;28;20033;-76
2023/04/29 11:59:41;;;;;;;6.40;4.57;;;16.50;99.90;;;;;;5052542;28;20079;-78
2023/04/29 12:02:11;;;;;;;5.35;4.78;;;16.30;99.90;;;;;;5052934;28;20071;-78
2023/04/29 12:04:47;;;;;;;6.47;4.50;;;16.30;99.90;;;;;;5034385;28;20029;-75
2023/04/29 12:07:16;;;;;;;5.50;3.80;;;16.30;99.90;;;;;;5052990;28;20036;-78
2023/04/29 12:09:46;;;;;;;4.93;3.67;;;16.40;99.90;;;;;;5052451;28;20029;-79
2023/04/29 12:12:13;;;;;;;5.15;3.42;;;16.50;99.90;;;;;;5052696;28;20032;-76
2023/04/29 12:14:40;;;;;;;5.35;3.60;;;16.50;99.90;;;;;;5050843;28;20025;-76
2023/04/29 12:17:08;;;;;;;6.30;3.45;;;16.60;99.90;;;;;;5052584;28;20044;-76
2023/04/29 12:19:37;;;;;;;5.00;3.92;;;16.60;99.90;;;;;;5033715;28;20032;-76
2023/04/29 12:22:03;;;;;;;6.78;4.00;;;16.60;99.90;;;;;;5052514;28;20029;-77
2023/04/29 12:24:36;;;;;;;4.28;3.75;;;16.60;99.90;;;;;;5051979;28;20017;-77
2023/04/29 12:27:02;;;;;;;4.18;3.75;;;16.70;99.90;;;;;;5052200;28;20055;-76
2023/04/29 12:29:28;;;;;;;6.15;3.97;;;16.80;99.90;;;;;;5051500;28;20045;-77
2023/04/29 12:31:55;;;;;;;5.93;3.95;;;16.80;99.90;;;;;;5051436;28;20382;-76
2023/04/29 12:34:31;;;;;;;7.00;4.22;;;17.00;99.90;;;;;;5052108;28;20389;-76
2023/04/29 12:37:01;;;;;;;5.40;3.97;;;17.00;99.90;;;;;;5034518;28;20495;-77
2023/04/29 12:39:27;;;;;;;8.82;3.65;;;17.10;99.90;;;;;;5063686;28;20103;-77
2023/04/29 12:41:58;;;;;;;5.47;3.63;;;17.10;99.90;;;;;;5072731;28;20513;-76
2023/04/29 12:44:24;;;;;;;5.22;3.40;;;17.00;99.90;;;;;;5072379;28;20063;-76
2023/04/29 12:46:54;;;;;;;4.95;3.50;;;17.10;99.90;;;;;;5071812;28;20059;-77
2023/04/29 12:49:22;;;;;;;4.63;4.07;;;17.30;99.90;;;;;;5071493;28;20024;-76
2023/04/29 12:51:48;;;;;;;8.18;3.92;;;17.20;99.90;;;;;;5071818;28;20094;-77